Latest Weather Observations for Blackall

IDQ60801

Issued at 2:35 pm EST Wednesday 3 September 2014 (issued every 30 minutes, with the page automatically refreshed every 10 minutes)

About weather observations | Map of weather stations | Latest weather observations for QLD | Other Formats
Station Details ID: 036034 Name: BLACKALL AIRPORT Lat: -24.43 Lon: 145.43 Height: 281.3 m
Data from the previous 72 hours. | See also: Recent months at Blackall
Date/Time
EST
Temp
°C
App
Temp
°C
Dew
Point
Rel
Hum
%
Delta-T
°C
Wind Press
QNH
hPa
Press
MSL
hPa
Rain
since 9 am
mm
Dir
 
Spd
km/h
Gust
km/h
Spd
kts
Gust
kts
03/02:30pm 20.6 14.8 -4.5 18 10.3 SSE 17 24 9 13 1017.7 1016.7 0.0
03/02:00pm 20.2 14.0 -3.4 20 9.9 SE 20 24 11 13 1018.0 1016.9 0.0
03/01:30pm 19.6 14.3 -3.3 21 9.6 S 15 22 8 12 1018.3 1017.2 0.0
03/01:00pm 19.9 15.1 -2.4 22 9.5 SSE 13 24 7 13 1019.0 1018.0 0.0
03/12:30pm 18.7 12.8 -2.3 24 8.9 SE 19 32 10 17 1019.7 1018.7 0.0
03/12:00pm 18.6 12.6 -1.8 25 8.7 SSE 20 32 11 17 1020.3 1019.3 0.0
03/11:30am 17.4 11.9 -1.8 27 8.1 SSE 17 28 9 15 1020.8 1019.8 0.0
03/11:00am 16.7 11.3 -1.4 29 7.6 SE 17 24 9 13 1021.9 1020.9 0.0
03/10:30am 16.4 10.5 -0.8 31 7.3 SE 20 35 11 19 1022.3 1021.3 0.0
03/10:00am 15.8 9.2 -0.4 33 6.9 SE 24 32 13 17 1022.3 1021.3 0.0
03/09:30am 15.0 8.8 -0.3 35 6.5 SSE 22 35 12 19 1022.4 1021.4 0.0
03/09:00am 13.4 7.3 0.1 40 5.6 SSE 22 30 12 16 1022.6 1021.6 0.0
03/08:30am 12.3 6.5 -0.2 42 5.2 SSE 20 30 11 16 1022.5 1021.5 0.0
03/08:00am 10.9 6.4 -0.2 46 4.5 SSE 13 19 7 10 1022.4 1021.4 0.0
03/07:30am 8.7 4.9 -0.6 52 3.7 S 9 11 5 6 1022.5 1021.5 0.0
03/07:00am 5.1 1.6 -1.1 64 2.3 S 7 9 4 5 1021.9 1020.9 0.0
03/06:30am 3.9 0.2 -2.5 63 2.3 S 7 9 4 5 1021.5 1020.5 0.0
03/06:00am 3.9 0.4 -2.7 62 2.3 S 6 6 3 3 1021.1 1020.1 0.0
03/05:30am 5.0 1.3 -2.6 58 2.8 S 7 7 4 4 1020.7 1019.7 0.0
03/05:00am 6.0 2.4 -2.3 55 3.1 S 7 9 4 5 1020.1 1019.1 0.0
03/04:30am 7.3 3.7 -2.2 51 3.6 S 7 7 4 4 1019.8 1018.8 0.0
03/04:00am 7.8 4.2 -2.0 50 3.7 SSE 7 9 4 5 1019.5 1018.5 0.0
03/03:30am 8.3 4.3 -2.0 48 3.9 S 9 11 5 6 1019.5 1018.5 0.0
03/03:00am 8.5 4.5 -2.1 47 4.0 S 9 11 5 6 1019.6 1018.6 0.0
03/02:30am 9.0 5.4 -2.3 45 4.3 S 7 11 4 6 1019.9 1018.9 0.0
03/02:00am 10.4 6.4 -1.9 42 4.8 S 9 15 5 8 1020.0 1019.0 0.0
03/01:30am 11.2 6.5 -1.5 41 5.1 S 13 19 7 10 1020.1 1019.1 0.0
03/01:00am 11.3 7.0 -1.5 41 5.1 SSW 11 15 6 8 1020.4 1019.4 0.0
03/12:30am 12.1 7.5 -1.4 39 5.5 S 13 19 7 10 1020.3 1019.3 0.0
03/12:00am 12.9 7.9 -1.1 38 5.7 S 15 20 8 11 1020.3 1019.3 0.0
 
Date/Time
EST
Temp
°C
App
Temp
°C
Dew
Point
Rel
Hum
%
Delta-T
°C
Wind Press
QNH
hPa
Press
MSL
hPa
Rain
since 9 am
mm
Dir
 
Spd
km/h
Gust
km/h
Spd
kts
Gust
kts
02/11:30pm 13.7 8.7 -1.1 36 6.1 S 15 22 8 12 1020.3 1019.3 0.0
02/11:00pm 14.5 8.5 -1.2 34 6.5 S 20 26 11 14 1020.1 1019.1 0.0
02/10:30pm 15.0 9.6 -1.1 33 6.7 S 17 22 9 12 1020.2 1019.2 0.0
02/10:00pm 15.2 10.2 -1.4 32 6.9 S 15 19 8 10 1020.2 1019.2 0.0
02/09:30pm 15.0 10.6 -2.4 30 7.1 S 11 15 6 8 1020.2 1019.2 0.0
02/09:00pm 16.0 11.2 -2.5 28 7.6 SSW 13 17 7 9 1019.8 1018.8 0.0
02/08:30pm 17.0 11.4 -2.6 26 8.1 S 17 22 9 12 1019.5 1018.5 0.0
02/08:00pm 17.4 11.8 -2.8 25 8.3 SSW 17 24 9 13 1019.2 1018.2 0.0
02/07:30pm 18.2 12.6 -2.7 24 8.7 SSW 17 22 9 12 1018.9 1017.9 0.0
02/07:00pm 18.7 13.6 -2.3 24 8.9 SSW 15 22 8 12 1018.2 1017.1 0.0
02/06:30pm 19.7 14.4 -3.2 21 9.6 SSW 15 20 8 11 1017.6 1016.6 0.0
02/06:00pm 21.0 15.1 -2.1 21 10.0 SSW 19 28 10 15 1017.3 1016.3 0.0
02/05:30pm 22.1 15.6 -2.6 19 10.7 SSW 22 33 12 18 1017.1 1016.1 0.0
02/05:00pm 23.1 16.6 -2.5 18 11.2 SSW 22 33 12 18 1017.0 1016.0 0.0
02/04:30pm 23.8 16.9 -2.7 17 11.6 SW 24 33 13 18 1016.7 1015.7 0.0
02/04:00pm 24.0 16.9 -4.2 15 12.0 SW 24 37 13 20 1016.5 1015.5 0.0
02/03:30pm 24.4 17.4 -3.9 15 12.2 SSW 24 37 13 20 1016.3 1015.3 0.0
02/03:00pm 24.7 17.9 -2.0 17 12.0 SW 24 35 13 19 1016.3 1015.3 0.0
02/02:30pm 24.3 17.4 -2.3 17 11.8 SW 24 35 13 19 1016.3 1015.3 0.0
02/02:00pm 24.4 17.9 0.0 20 11.3 SW 24 33 13 18 1016.6 1015.6 0.0
02/01:30pm 24.2 18.8 2.4 24 10.6 SW 20 32 11 17 1016.8 1015.8 0.0
02/01:00pm 24.3 18.2 3.0 25 10.4 SW 24 43 13 23 1017.2 1016.2 0.0
02/12:30pm 24.1 18.5 3.4 26 10.2 SSW 22 35 12 19 1017.9 1016.8 0.0
02/12:00pm 23.2 17.9 3.2 27 9.8 SSW 20 33 11 18 1018.1 1017.0 0.0
02/11:30am 23.0 16.6 3.0 27 9.7 SSW 26 35 14 19 1018.6 1017.5 0.0
02/11:00am 22.6 17.5 3.2 28 9.4 S 19 33 10 18 1018.7 1017.6 0.0
02/10:30am 21.8 16.2 3.5 30 8.9 SSW 22 28 12 15 1019.1 1018.1 0.0
02/10:00am 20.6 14.8 2.4 30 8.6 S 22 33 12 18 1019.4 1018.4 0.0
02/09:30am 19.8 13.3 2.6 32 8.1 S 26 35 14 19 1019.3 1018.3 0.0
02/09:00am 19.2 12.5 1.7 31 8.0 S 26 41 14 22 1019.3 1018.3 0.0
02/08:30am 18.2 10.1 -0.1 29 8.1 S 32 44 17 24 1019.1 1018.1 0.0
02/08:23am 18.2 10.8 -0.6 28 8.2 S 28 44 15 24 1019.1 1018.1 0.0
02/08:00am 17.0 11.1 -2.6 26 8.1 S 19 26 10 14 1018.7 1017.6 0.0
02/07:30am 14.1 9.6 -3.2 30 6.9 SSW 11 15 6 8 1018.1 1017.0 0.0
02/07:00am 11.8 7.9 -1.3 40 5.3 WSW 9 11 5 6 1017.9 1016.8 0.0
02/06:30am 11.1 7.2 -1.6 41 5.1 SW 9 11 5 6 1017.6 1016.6 0.0
02/06:00am 13.3 8.0 1.6 45 5.1 W 19 28 10 15 1016.7 1015.7 0.0
02/05:58am 10.9 3.7 0.6 49 4.3 WSW 28 48 15 26 1017.3 1016.3 0.0
02/05:30am 9.9 5.8 0.0 50 4.0 NE 11 13 6 7 1015.4 1014.3 0.0
02/05:00am 8.8 5.1 0.0 54 3.5 NE 9 11 5 6 1015.5 1014.4 0.0
02/04:30am 8.1 4.5 0.3 58 3.1 NNE 9 11 5 6 1015.4 1014.3 0.0
02/04:00am 7.5 5.3 -1.7 52 3.5 CALM 0 0 0 0 1015.6 1014.5 0.0
02/03:30am 8.3 6.1 -1.2 51 3.7 CALM 0 0 0 0 1015.7 1014.7 0.0
02/03:00am 8.8 6.6 -1.3 49 3.9 CALM 0 0 0 0 1015.8 1014.8 0.0
02/02:30am 9.5 6.0 -1.2 47 4.2 NNE 7 9 4 5 1015.9 1014.9 0.0
02/02:00am 9.4 5.6 -1.0 48 4.1 NNE 9 11 5 6 1016.0 1015.0 0.0
02/01:30am 9.3 6.7 -1.4 47 4.2 NE 2 7 1 4 1016.2 1015.2 0.0
02/01:00am 9.2 6.9 -2.1 45 4.4 CALM 0 0 0 0 1016.4 1015.4 0.0
02/12:30am 9.7 7.4 -2.3 43 4.6 CALM 0 6 0 3 1016.4 1015.4 0.0
02/12:00am 10.3 8.0 -2.0 42 4.8 CALM 0 4 0 2 1016.6 1015.6 0.0
 
Date/Time
EST
Temp
°C
App
Temp
°C
Dew
Point
Rel
Hum
%
Delta-T
°C
Wind Press
QNH
hPa
Press
MSL
hPa
Rain
since 9 am
mm
Dir
 
Spd
km/h
Gust
km/h
Spd
kts
Gust
kts
01/11:30pm 11.6 7.9 -2.9 36 5.6 ENE 7 9 4 5 1016.5 1015.5 0.0
01/11:00pm 13.2 9.6 -1.9 35 6.1 NE 7 9 4 5 1016.6 1015.6 0.0
01/10:30pm 13.9 10.2 -2.9 31 6.7 NNE 7 9 4 5 1016.8 1015.8 0.0
01/10:00pm 13.1 9.6 -1.6 36 6.0 NNE 7 9 4 5 1016.7 1015.7 0.0
01/09:30pm 13.7 11.5 -1.9 34 6.3 CALM 0 0 0 0 1016.6 1015.6 0.0
01/09:00pm 14.8 12.4 -3.0 29 7.1 CALM 0 0 0 0 1016.7 1015.7 0.0
01/08:30pm 14.9 11.4 -3.0 29 7.2 S 6 7 3 4 1016.5 1015.5 0.0
01/08:00pm 16.5 12.9 -3.6 25 8.1 NNW 6 7 3 4 1016.4 1015.4 0.0
01/07:30pm 17.7 14.5 -3.1 24 8.6 NNE 4 9 2 5 1015.7 1014.7 0.0
01/07:00pm 19.4 16.8 -4.8 19 9.8 CALM 0 0 0 0 1015.5 1014.4 0.0
01/06:30pm 22.6 18.4 -7.2 13 11.9 WNW 7 9 4 5 1015.4 1014.3 0.0
01/06:00pm 25.8 21.2 -8.1 10 13.7 WNW 9 11 5 6 1015.0 1013.9 0.0
01/05:30pm 27.7 22.3 -8.0 9 14.7 WNW 13 19 7 10 1015.0 1013.9 0.0
01/05:00pm 28.8 23.5 -7.2 9 15.2 WNW 13 19 7 10 1014.9 1013.8 0.0
01/04:30pm 29.0 23.6 -8.5 8 15.5 W 13 22 7 12 1014.8 1013.7 0.0
01/04:00pm 29.1 25.0 -7.0 9 15.3 W 7 13 4 7 1014.7 1013.6 0.0
01/03:30pm 28.8 24.4 -5.8 10 15.0 NW 9 19 5 10 1014.7 1013.6 0.0
01/03:00pm 28.6 23.8 -6.0 10 14.9 NW 11 17 6 9 1015.0 1013.9 0.0
01/02:30pm 28.1 22.9 -6.3 10 14.7 WNW 13 20 7 11 1015.3 1014.2 0.0
01/02:00pm 28.4 22.5 -6.1 10 14.8 WNW 17 26 9 14 1015.8 1014.8 0.0
01/01:30pm 28.5 22.9 -6.0 10 14.9 W 15 22 8 12 1016.3 1015.3 0.0
01/01:00pm 28.0 22.9 -5.2 11 14.4 NW 13 20 7 11 1016.7 1015.7 0.0
01/12:30pm 26.7 21.5 -6.2 11 13.9 NW 13 24 7 13 1017.7 1016.7 0.0
01/12:00pm 26.3 19.9 -6.5 11 13.7 NW 19 30 10 16 1018.4 1017.3 0.0
01/11:30am 25.9 21.0 -3.6 14 13.0 N 13 24 7 13 1018.9 1017.9 0.0
01/11:00am 25.7 20.1 -2.8 15 12.7 N 17 24 9 13 1019.3 1018.3 0.0
01/10:30am 25.2 19.4 -1.6 17 12.2 N 19 24 10 13 1019.3 1018.3 0.0
01/10:00am 24.1 17.7 -1.7 18 11.5 N 22 30 12 16 1019.4 1018.4 0.0
01/09:30am 22.7 16.8 -2.1 19 10.9 N 19 28 10 15 1019.3 1018.8 0.0
01/09:00am 21.2 16.3 -3.3 19 10.4 NNE 13 20 7 11 1019.6 1019.1 0.0
01/08:30am 18.9 14.2 -5.2 19 9.6 NE 11 17 6 9 1019.4 1018.9 0.0
01/08:00am 15.6 11.0 -3.8 26 7.7 ENE 11 15 6 8 1018.8 1018.3 0.0
01/07:30am 12.1 8.3 -4.1 32 6.2 E 7 9 4 5 1018.8 1018.3 0.0
01/07:00am 8.7 4.8 -4.5 39 4.8 E 7 9 4 5 1018.7 1018.2 0.0
01/06:30am 6.4 2.4 -5.2 43 4.0 E 7 11 4 6 1018.4 1017.9 0.0
01/06:00am 5.8 1.5 -4.9 46 3.7 ESE 9 11 5 6 1018.2 1017.7 0.0
01/05:30am 5.5 2.1 -5.2 46 3.7 E 4 7 2 4 1018.0 1017.5 0.0
01/05:00am 6.3 2.6 -5.0 44 3.9 ENE 6 11 3 6 1017.3 1016.8 0.0
01/04:30am 7.7 5.0 -5.7 38 4.7 CALM 0 2 0 1 1017.0 1016.5 0.0
01/04:00am 8.5 5.0 -6.8 33 5.2 ESE 4 9 2 5 1016.8 1016.3 0.0
01/03:30am 8.6 4.5 -7.1 32 5.3 ESE 7 11 4 6 1016.7 1016.2 0.0
01/03:00am 11.0 7.0 -7.3 27 6.4 E 6 9 3 5 1016.8 1016.3 0.0
01/02:30am 12.5 6.4 -7.5 24 7.1 ESE 17 20 9 11 1016.9 1016.4 0.0
01/02:00am 13.4 7.3 -7.9 22 7.5 E 17 20 9 11 1017.0 1016.5 0.0
01/01:30am 13.2 7.1 -8.0 22 7.5 E 17 20 9 11 1017.3 1016.8 0.0
01/01:00am 12.3 6.6 -7.1 25 6.9 ESE 15 19 8 10 1017.3 1016.8 0.0
01/12:30am 11.9 6.6 -7.5 25 6.8 ESE 13 15 7 8 1017.7 1017.3 0.0
01/12:00am 12.2 7.3 -7.2 25 6.9 ESE 11 13 6 7 1018.0 1017.5 0.0
 
Date/Time
EST
Temp
°C
App
Temp
°C
Dew
Point
Rel
Hum
%
Delta-T
°C
Wind Press
QNH
hPa
Press
MSL
hPa
Rain
since 9 am
mm
Dir
 
Spd
km/h
Gust
km/h
Spd
kts
Gust
kts
31/11:30pm 13.3 8.7 -7.9 22 7.5 ESE 9 11 5 6 1018.1 1017.6 0.0
31/11:00pm 13.9 9.0 -7.4 22 7.7 ESE 11 13 6 7 1018.2 1017.7 0.0
31/10:30pm 14.2 9.2 -8.4 20 8.0 ESE 11 13 6 7 1018.1 1017.6 0.0
31/10:00pm 15.4 10.0 -8.1 19 8.5 SE 13 15 7 8 1018.2 1017.7 0.0
31/09:30pm 14.4 9.9 -7.0 22 7.8 SE 9 13 5 7 1018.1 1017.6 0.0
31/09:00pm 16.9 12.0 -7.5 18 9.1 SE 11 15 6 8 1017.9 1017.4 0.0
31/08:30pm 13.9 9.7 -4.3 28 7.0 SSE 9 11 5 6 1017.6 1017.1 0.0
31/08:00pm 15.1 11.1 -5.3 24 7.8 S 7 9 4 5 1017.5 1017.0 0.0
31/07:30pm 19.4 14.5 -7.0 16 10.2 SSE 11 11 6 6 1017.2 1016.7 0.0
31/07:00pm 17.8 13.8 -6.1 19 9.2 S 7 9 4 5 1016.7 1016.2 0.0
31/06:30pm 21.4 16.9 -7.2 14 11.3 S 9 9 5 5 1016.5 1016.0 0.0
31/06:00pm 23.1 18.5 -7.8 12 12.2 S 9 13 5 7 1016.3 1015.8 0.0
31/05:30pm 25.1 19.7 -8.6 10 13.4 SSW 13 17 7 9 1016.1 1015.6 0.0
31/05:00pm 25.9 21.7 -8.0 10 13.7 WSW 7 19 4 10 1015.8 1015.3 0.0
31/04:30pm 25.9 21.7 -8.0 10 13.7 SW 7 17 4 9 1015.8 1015.3 0.0
31/04:00pm 26.5 21.9 -7.6 10 14.0 S 9 15 5 8 1015.8 1015.3 0.0
31/03:30pm 26.3 21.2 -9.1 9 14.1 S 11 17 6 9 1015.8 1015.3 0.0
31/03:00pm 26.3 22.2 -9.1 9 14.1 WNW 6 13 3 7 1016.0 1015.5 0.0

Other Formats:

Comma delimited format used in spreadsheet applications
http://www.bom.gov.au/fwo/IDQ60801/IDQ60801.95351.axf

JavaScript Object Notation format (JSON) in row-major order
http://www.bom.gov.au/fwo/IDQ60801/IDQ60801.95351.json